Home > Products > Valid Products > TAF

000
FTUS46 KSTO 061100
TAFMHR
TAF
KMHR 061120Z 0612/0712 VRB03KT P6SM SKC=



000
FTUS46 KSTO 061100
TAFRDD
TAF
KRDD 061120Z 0612/0712 VRB04KT P6SM SKC=



000
FTUS46 KSTO 061100
TAFRBL
TAF
KRBL 061120Z 0612/0712 33006KT P6SM SKC=



000
FTUS46 KSTO 061100
TAFSCK
TAF
KSCK 061120Z 0612/0712 VRB04KT P6SM SKC=



000
FTUS46 KSTO 061100
TAFSAC
TAF
KSAC 061120Z 0612/0712 VRB04KT P6SM SKC=



000
FTUS46 KSTO 061100
TAFSMF
TAF
KSMF 061120Z 0612/0712 32005KT P6SM SKC=



000
FTUS46 KSTO 060500
TAFSMF
TAF
KSMF 060520Z 0606/0706 32005KT P6SM SKC=



000
FTUS46 KSTO 060500
TAFSCK
TAF
KSCK 060520Z 0606/0706 30005KT P6SM SKC=



000
FTUS46 KSTO 060500
TAFRDD
TAF
KRDD 060520Z 0606/0706 VRB04KT P6SM SKC=



000
FTUS46 KSTO 060500
TAFRBL
TAF
KRBL 060520Z 0606/0706 33005KT P6SM SKC=



000
FTUS46 KSTO 060500
TAFSAC
TAF
KSAC 060520Z 0606/0706 VRB04KT P6SM SKC=



000
FTUS46 KSTO 060500
TAFMHR
TAF
KMHR 060520Z 0606/0706 VRB04KT P6SM SKC=



000
FTUS46 KSTO 052300
TAFSMF
TAF
KSMF 052338Z 0600/0624 VRB03KT P6SM SKC
     FM062000 33005KT P6SM SKC=



000
FTUS46 KSTO 052300
TAFSCK
TAF
KSCK 052338Z 0600/0624 VRB04KT P6SM SKC=



000
FTUS46 KSTO 052300
TAFMHR
TAF
KMHR 052338Z 0600/0624 VRB04KT P6SM SKC=



000
FTUS46 KSTO 052300
TAFRDD
TAF
KRDD 052338Z 0600/0624 VRB04KT P6SM SKC
     FM060700 30005KT P6SM SKC=



000
FTUS46 KSTO 052300
TAFSCK
TAF
KSCK 052338Z 0600/0624 VRB04KT P6SM SKC=



000
FTUS46 KSTO 052300
TAFSAC
TAF
KSAC 052338Z 0600/0624 VRB03KT P6SM SKC
     FM062000 33005KT P6SM SKC=



000
FTUS46 KSTO 052300
TAFMHR
TAF
KMHR 052338Z 0600/0624 VRB04KT P6SM SKC=



000
FTUS46 KSTO 052300
TAFSMF
TAF
KSMF 052338Z 0600/0624 VRB03KT P6SM SKC
     FM062000 33005KT P6SM SKC=



000
FTUS46 KSTO 052300
TAFRBL
TAF
KRBL 052338Z 0600/0624 VRB04KT P6SM SKC
     FM060700 32005KT P6SM SKC=



000
FTUS46 KSTO 052300
TAFRDD
TAF
KRDD 052338Z 0600/0624 VRB04KT P6SM SKC
     FM060700 30005KT P6SM SKC=



000
FTUS46 KSTO 052300
TAFRBL
TAF
KRBL 052338Z 0600/0624 VRB04KT P6SM SKC
     FM060700 32005KT P6SM SKC=



000
FTUS46 KSTO 052300
TAFSAC
TAF
KSAC 052338Z 0600/0624 VRB03KT P6SM SKC
     FM062000 33005KT P6SM SKC=



000
FTUS46 KSTO 051700
TAFMHR
TAF
KMHR 051733Z 0518/0618 VRB04KT P6SM SKC=



000
FTUS46 KSTO 051700
TAFRBL
TAF
KRBL 051733Z 0518/0618 34006KT P6SM SKC
     FM052300 VRB04KT P6SM SKC
     FM060700 32005KT P6SM SKC=



000
FTUS46 KSTO 051700
TAFSAC
TAF
KSAC 051733Z 0518/0618 33006KT P6SM SKC
     FM060300 00000KT P6SM SKC=



000
FTUS46 KSTO 051700
TAFSCK
TAF
KSCK 051733Z 0518/0618 VRB04KT P6SM SKC
      TEMPO 0602/0606 27007KT=



000
FTUS46 KSTO 051700
TAFSMF
TAF
KSMF 051733Z 0518/0618 33006KT P6SM SKC
     FM060300 00000KT P6SM SKC=



000
FTUS46 KSTO 051700
TAFRDD
TAF
KRDD 051733Z 0518/0618 VRB04KT P6SM SKC
     FM060700 30005KT P6SM SKC=



000
FTUS46 KSTO 051100
TAFMHR
TAF
KMHR 051120Z 0512/0612 VRB04KT P6SM SKC=



000
FTUS46 KSTO 051100
TAFRBL
TAF
KRBL 051120Z 0512/0612 VRB04KT P6SM SKC=



000
FTUS46 KSTO 051100
TAFSAC
TAF
KSAC 051120Z 0512/0612 VRB03KT P6SM SKC=



000
FTUS46 KSTO 051100
TAFSCK
TAF
KSCK 051120Z 0512/0612 VRB04KT P6SM SKC=



000
FTUS46 KSTO 051100
TAFSMF
TAF
KSMF 051120Z 0512/0612 VRB04KT P6SM SKC=



000
FTUS46 KSTO 051100
TAFRDD
TAF
KRDD 051120Z 0512/0612 VRB04KT P6SM SKC=



000
FTUS46 KSTO 050500
TAFMHR
TAF
KMHR 050520Z 0506/0606 VRB04KT P6SM SKC=



000
FTUS46 KSTO 050500
TAFSMF
TAF
KSMF 050520Z 0506/0606 VRB04KT P6SM SKC=



000
FTUS46 KSTO 050500
TAFSAC
TAF
KSAC 050520Z 0506/0606 VRB03KT P6SM SKC=



000
FTUS46 KSTO 050500
TAFRDD
TAF
KRDD 050520Z 0506/0606 VRB04KT P6SM FEW250=



000
FTUS46 KSTO 050500
TAFRBL
TAF
KRBL 050520Z 0506/0606 VRB04KT P6SM FEW250=



000
FTUS46 KSTO 050500
TAFMHR
TAF
KMHR 050520Z 0506/0606 VRB04KT P6SM SKC=



000
FTUS46 KSTO 050500
TAFSMF
TAF
KSMF 050520Z 0506/0606 VRB04KT P6SM SKC=



000
FTUS46 KSTO 050500
TAFSCK
TAF
KSCK 050520Z 0506/0606 VRB04KT P6SM SKC=



000
FTUS46 KSTO 050500
TAFSAC
TAF
KSAC 050520Z 0506/0606 VRB03KT P6SM SKC=



000
FTUS46 KSTO 050500
TAFRDD
TAF
KRDD 050520Z 0506/0606 VRB04KT P6SM FEW250=



000
FTUS46 KSTO 050500
TAFRBL
TAF
KRBL 050520Z 0506/0606 VRB04KT P6SM FEW250=



000
FTUS46 KSTO 050500
TAFSCK
TAF
KSCK 050520Z 0506/0606 VRB04KT P6SM SKC=



000
FTUS46 KSTO 042300
TAFMHR
TAF
KMHR 042330Z 0500/0524 VRB05KT P6SM SKC=



000
FTUS46 KSTO 042300
TAFSCK
TAF
KSCK 042330Z 0500/0524 28005KT P6SM SKC
      TEMPO 0514/0517 00000KT 4SM BR=



000
FTUS46 KSTO 042300
TAFSAC
TAF
KSAC 042330Z 0500/0524 VRB04KT P6SM SKC
     FM051800 35006KT P6SM SKC=



000
FTUS46 KSTO 042300
TAFRBL
TAF
KRBL 042330Z 0500/0524 VRB04KT P6SM SKC
     FM051700 31007KT P6SM SKC=



000
FTUS46 KSTO 042300
TAFRDD
TAF
KRDD 042330Z 0500/0524 VRB04KT P6SM SKC=



000
FTUS46 KSTO 042300
TAFSMF
TAF
KSMF 042330Z 0500/0524 VRB03KT P6SM SKC
     FM051700 34006KT P6SM SKC=



000
FTUS46 KSTO 041700 RRA
TAFMHR
TAF
KMHR 041743Z 0418/0518 VRB05KT P6SM SKC=



000
FTUS46 KSTO 041700 RRA
TAFSAC
TAF
KSAC 041743Z 0418/0518 VRB04KT P6SM SKC=



000
FTUS46 KSTO 041700 RRA
TAFSCK
TAF
KSCK 041743Z 0418/0518 31004KT P6SM SKC
      TEMPO 0514/0517 00000KT 4SM BR=



000
FTUS46 KSTO 041700 RRA
TAFSMF
TAF
KSMF 041743Z 0418/0518 32004KT P6SM SKC=



000
FTUS46 KSTO 041700 RRA
TAFRBL
TAF
KRBL 041743Z 0418/0518 36009KT P6SM SKC
     FM050300 31005KT P6SM SKC=



000
FTUS46 KSTO 041700 RRA
TAFRDD
TAF
KRDD 041743Z 0418/0518 01009KT P6SM SKC
     FM042300 VRB02KT P6SM SKC=



000
FTUS46 KSTO 041700 RRA
TAFMHR
TAF
KMHR 041743Z 0418/0518 VRB05KT P6SM SKC=



000
FTUS46 KSTO 041700 RRA
TAFSCK
TAF
KSCK 041743Z 0418/0518 31004KT P6SM SKC
      TEMPO 0514/0517 00000KT 4SM BR=



000
FTUS46 KSTO 041700 RRA
TAFSAC
TAF
KSAC 041743Z 0418/0518 VRB04KT P6SM SKC=



000
FTUS46 KSTO 041700 RRA
TAFSMF
TAF
KSMF 041743Z 0418/0518 32004KT P6SM SKC=



000
FTUS46 KSTO 041700 RRA
TAFRBL
TAF
KRBL 041743Z 0418/0518 36009KT P6SM SKC
     FM050300 31005KT P6SM SKC=



000
FTUS46 KSTO 041700 RRA
TAFRDD
TAF
KRDD 041743Z 0418/0518 01009KT P6SM SKC
     FM042300 VRB02KT P6SM SKC=



000
FTUS46 KSTO 041100
TAFMHR
TAF
KMHR 041134Z 0412/0512 VRB03KT P6SM SKC=



000
FTUS46 KSTO 041100
TAFSCK
TAF
KSCK 041134Z 0412/0512 31004KT P6SM SKC=



000
FTUS46 KSTO 041100
TAFSMF
TAF
KSMF 041134Z 0412/0512 32005KT P6SM SKC=



000
FTUS46 KSTO 041100
TAFSAC
TAF
KSAC 041134Z 0412/0512 VRB04KT P6SM SKC=



000
FTUS46 KSTO 041100
TAFRDD
TAF
KRDD 041134Z 0412/0512 00000KT P6SM SKC
     FM041700 01009KT P6SM SKC
     FM042300 VRB02KT P6SM SKC=



000
FTUS46 KSTO 041100
TAFRBL
TAF
KRBL 041134Z 0412/0512 35010KT P6SM SKC
     FM050300 31005KT P6SM SKC=



000
FTUS46 KSTO 040500
TAFRDD
TAF
KRDD 040530Z 0406/0506 VRB02KT P6SM FEW250
     FM041700 01009KT P6SM FEW250
     FM042300 VRB02KT P6SM FEW250=



000
FTUS46 KSTO 040500
TAFRBL
TAF
KRBL 040530Z 0406/0506 32005KT P6SM FEW250
     FM041800 36010KT P6SM FEW250
     FM050300 31005KT P6SM FEW250=



000
FTUS46 KSTO 040500
TAFSMF
TAF
KSMF 040530Z 0406/0506 VRB05KT P6SM SKC=



000
FTUS46 KSTO 040500
TAFSAC
TAF
KSAC 040530Z 0406/0506 VRB04KT P6SM SKC=



000
FTUS46 KSTO 040500
TAFMHR
TAF
KMHR 040530Z 0406/0506 VRB04KT P6SM SKC=



000
FTUS46 KSTO 040500
TAFSCK
TAF
KSCK 040530Z 0406/0506 VRB05KT P6SM SKC=



000
FTUS46 KSTO 040500
TAFRBL
TAF
KRBL 040530Z 0406/0506 32005KT P6SM FEW250
     FM041800 36010KT P6SM FEW250
     FM050300 31005KT P6SM FEW250=



000
FTUS46 KSTO 040500
TAFRDD
TAF
KRDD 040530Z 0406/0506 VRB02KT P6SM FEW250
     FM041700 01009KT P6SM FEW250
     FM042300 VRB02KT P6SM FEW250=



000
FTUS46 KSTO 040500
TAFSMF
TAF
KSMF 040530Z 0406/0506 VRB05KT P6SM SKC=



000
FTUS46 KSTO 040500
TAFSAC
TAF
KSAC 040530Z 0406/0506 VRB04KT P6SM SKC=



000
FTUS46 KSTO 040500
TAFSCK
TAF
KSCK 040530Z 0406/0506 VRB05KT P6SM SKC=



000
FTUS46 KSTO 040500
TAFMHR
TAF
KMHR 040530Z 0406/0506 VRB04KT P6SM SKC=



000
FTUS46 KSTO 032300
TAFSMF
TAF
KSMF 032332Z 0400/0424 30010G15KT P6SM SKC
     FM040300 33005KT P6SM SKC=



000
FTUS46 KSTO 032300
TAFSAC
TAF
KSAC 032332Z 0400/0424 33011G18KT P6SM SKC
     FM040200 31005KT P6SM SKC=



000
FTUS46 KSTO 032300
TAFRDD
TAF
KRDD 032332Z 0400/0424 VRB04KT P6SM SCT250
     FM041700 36007KT P6SM SKC
     FM042000 01010KT P6SM SKC=



000
FTUS46 KSTO 032300
TAFRBL
TAF
KRBL 032332Z 0400/0424 34010KT P6SM SCT250
     FM040200 33005KT P6SM SKC
     FM041800 36010G18KT P6SM SKC=



000
FTUS46 KSTO 032300
TAFMHR
TAF
KMHR 032332Z 0400/0424 30011G16KT P6SM SKC
     FM040200 VRB05KT P6SM SKC=



000
FTUS46 KSTO 032300
TAFSCK
TAF
KSCK 032332Z 0400/0424 28014KT P6SM SKC
     FM040200 30008KT P6SM SKC
     FM040600 VRB05KT P6SM SKC=



000
FTUS46 KSTO 031700
TAFMHR
TAF
KMHR 031720Z 0318/0418 35008KT P6SM SKC
     FM032000 35011KT P6SM SKC
     FM040200 VRB05KT P6SM SKC=



000
FTUS46 KSTO 031700
TAFSCK
TAF
KSCK 031720Z 0318/0418 31010KT P6SM SKC
     FM032000 32013KT P6SM SKC
     FM040200 VRB05KT P6SM SKC=



000
FTUS46 KSTO 031700
TAFSAC
TAF
KSAC 031720Z 0318/0418 35008KT P6SM SKC
     FM032000 33013G22KT P6SM SKC
     FM040300 35005KT P6SM SKC=



000
FTUS46 KSTO 031700
TAFRDD
TAF
KRDD 031720Z 0318/0418 01012KT P6SM FEW250
     FM040200 35007KT P6SM SKC=



000
FTUS46 KSTO 031700
TAFSMF
TAF
KSMF 031720Z 0318/0418 33006KT P6SM SKC
     FM032000 34013KT P6SM SKC
     FM040300 33005KT P6SM SKC=



000
FTUS46 KSTO 031700
TAFRBL
TAF
KRBL 031720Z 0318/0418 35014G20KT P6SM FEW250
     FM040300 34010KT P6SM SKC=



000
FTUS46 KSTO 031700
TAFSCK
TAF
KSCK 031720Z 0318/0418 31010KT P6SM SKC
     FM032000 32013KT P6SM SKC
     FM040200 VRB05KT P6SM SKC=



000
FTUS46 KSTO 031700
TAFMHR
TAF
KMHR 031720Z 0318/0418 35008KT P6SM SKC
     FM032000 35011KT P6SM SKC
     FM040200 VRB05KT P6SM SKC=



000
FTUS46 KSTO 031700
TAFRBL
TAF
KRBL 031720Z 0318/0418 35014G20KT P6SM FEW250
     FM040300 34010KT P6SM SKC=



000
FTUS46 KSTO 031700
TAFSAC
TAF
KSAC 031720Z 0318/0418 35008KT P6SM SKC
     FM032000 33013G22KT P6SM SKC
     FM040300 35005KT P6SM SKC=



000
FTUS46 KSTO 031700
TAFRDD
TAF
KRDD 031720Z 0318/0418 01012KT P6SM FEW250
     FM040200 35007KT P6SM SKC=



000
FTUS46 KSTO 031700
TAFSMF
TAF
KSMF 031720Z 0318/0418 33006KT P6SM SKC
     FM032000 34013KT P6SM SKC
     FM040300 33005KT P6SM SKC=



000
FTUS46 KSTO 031500 AAA
TAFSCK
TAF AMD
KSCK 031501Z 0315/0412 VRB04KT P6SM SKC
     FM032000 32013KT P6SM SKC
     FM040200 VRB03KT P6SM SKC=



    US Dept of Commerce
    National Oceanic and Atmospheric Administration
    National Weather Service
    1325 East West Highway
    Silver Spring, MD 20910
    Page Author: NWS Internet Services Team
Disclaimer
Information Quality
Credits
Glossary
Privacy Policy
Freedom of Information Act (FOIA)
About Us
Career Opportunities